sensor_id;sensor_type;location;lat;lon;timestamp;P1;durP1;ratioP1;P2;durP2;ratioP2
10403;SDS011;5248;47.374;8.486;2023-09-08T00:02:09;7.20;;;6.70;;
10403;SDS011;5248;47.374;8.486;2023-09-08T00:04:36;7.95;;;7.35;;
10403;SDS011;5248;47.374;8.486;2023-09-08T00:07:02;8.40;;;7.70;;
10403;SDS011;5248;47.374;8.486;2023-09-08T00:09:29;8.48;;;7.88;;
10403;SDS011;5248;47.374;8.486;2023-09-08T00:11:57;8.55;;;7.70;;
10403;SDS011;5248;47.374;8.486;2023-09-08T00:14:24;8.02;;;7.40;;
10403;SDS011;5248;47.374;8.486;2023-09-08T00:16:52;8.80;;;8.00;;
10403;SDS011;5248;47.374;8.486;2023-09-08T00:19:19;8.35;;;7.72;;
10403;SDS011;5248;47.374;8.486;2023-09-08T00:21:46;8.60;;;7.90;;
10403;SDS011;5248;47.374;8.486;2023-09-08T00:24:12;8.13;;;7.50;;
10403;SDS011;5248;47.374;8.486;2023-09-08T00:26:39;8.93;;;8.02;;
10403;SDS011;5248;47.374;8.486;2023-09-08T00:29:05;8.90;;;8.00;;
10403;SDS011;5248;47.374;8.486;2023-09-08T00:31:31;8.50;;;7.80;;
10403;SDS011;5248;47.374;8.486;2023-09-08T00:34:01;9.00;;;8.20;;
10403;SDS011;5248;47.374;8.486;2023-09-08T00:36:27;8.70;;;7.90;;
10403;SDS011;5248;47.374;8.486;2023-09-08T00:38:54;8.02;;;7.43;;
10403;SDS011;5248;47.374;8.486;2023-09-08T00:41:20;8.98;;;8.18;;
10403;SDS011;5248;47.374;8.486;2023-09-08T00:43:48;8.13;;;7.43;;
10403;SDS011;5248;47.374;8.486;2023-09-08T00:46:15;8.60;;;7.80;;
10403;SDS011;5248;47.374;8.486;2023-09-08T00:48:42;9.52;;;8.02;;
10403;SDS011;5248;47.374;8.486;2023-09-08T00:51:10;9.00;;;8.27;;
10403;SDS011;5248;47.374;8.486;2023-09-08T00:53:36;8.88;;;8.02;;
10403;SDS011;5248;47.374;8.486;2023-09-08T00:56:03;8.70;;;7.78;;
10403;SDS011;5248;47.374;8.486;2023-09-08T00:58:30;8.18;;;7.45;;
10403;SDS011;5248;47.374;8.486;2023-09-08T01:00:57;8.52;;;7.82;;
10403;SDS011;5248;47.374;8.486;2023-09-08T01:03:23;9.00;;;8.20;;
10403;SDS011;5248;47.374;8.486;2023-09-08T01:05:50;8.93;;;8.02;;
10403;SDS011;5248;47.374;8.486;2023-09-08T01:08:18;8.43;;;7.72;;
10403;SDS011;5248;47.374;8.486;2023-09-08T01:10:45;8.70;;;7.97;;
10403;SDS011;5248;47.374;8.486;2023-09-08T01:13:11;8.55;;;7.95;;
10403;SDS011;5248;47.374;8.486;2023-09-08T01:15:39;8.57;;;7.90;;
10403;SDS011;5248;47.374;8.486;2023-09-08T01:18:06;8.45;;;7.80;;
10403;SDS011;5248;47.374;8.486;2023-09-08T01:20:35;9.07;;;8.18;;
10403;SDS011;5248;47.374;8.486;2023-09-08T01:23:21;10.07;;;8.48;;
10403;SDS011;5248;47.374;8.486;2023-09-08T01:25:50;9.55;;;8.65;;
10403;SDS011;5248;47.374;8.486;2023-09-08T01:28:18;8.85;;;8.10;;
10403;SDS011;5248;47.374;8.486;2023-09-08T01:30:46;8.48;;;7.82;;
10403;SDS011;5248;47.374;8.486;2023-09-08T01:33:13;9.07;;;8.38;;
10403;SDS011;5248;47.374;8.486;2023-09-08T01:35:40;9.35;;;8.55;;
10403;SDS011;5248;47.374;8.486;2023-09-08T01:38:07;8.95;;;8.13;;
10403;SDS011;5248;47.374;8.486;2023-09-08T01:40:34;9.25;;;8.40;;
10403;SDS011;5248;47.374;8.486;2023-09-08T01:43:01;9.32;;;8.30;;
10403;SDS011;5248;47.374;8.486;2023-09-08T01:45:28;8.52;;;7.72;;
10403;SDS011;5248;47.374;8.486;2023-09-08T01:47:55;9.23;;;8.23;;
10403;SDS011;5248;47.374;8.486;2023-09-08T01:50:21;8.73;;;8.00;;
10403;SDS011;5248;47.374;8.486;2023-09-08T01:52:51;9.50;;;8.60;;
10403;SDS011;5248;47.374;8.486;2023-09-08T01:55:20;9.57;;;8.48;;
10403;SDS011;5248;47.374;8.486;2023-09-08T01:57:47;9.18;;;8.30;;
10403;SDS011;5248;47.374;8.486;2023-09-08T02:00:15;8.98;;;8.23;;
10403;SDS011;5248;47.374;8.486;2023-09-08T02:02:43;8.30;;;7.60;;
10403;SDS011;5248;47.374;8.486;2023-09-08T02:05:10;9.00;;;8.20;;
10403;SDS011;5248;47.374;8.486;2023-09-08T02:07:36;8.85;;;8.13;;
10403;SDS011;5248;47.374;8.486;2023-09-08T02:10:03;9.45;;;8.43;;
10403;SDS011;5248;47.374;8.486;2023-09-08T02:12:30;8.88;;;7.97;;
10403;SDS011;5248;47.374;8.486;2023-09-08T02:14:56;9.50;;;8.48;;
10403;SDS011;5248;47.374;8.486;2023-09-08T02:17:24;12.45;;;9.18;;
10403;SDS011;5248;47.374;8.486;2023-09-08T02:19:51;8.88;;;8.20;;
10403;SDS011;5248;47.374;8.486;2023-09-08T02:22:17;9.43;;;8.50;;
10403;SDS011;5248;47.374;8.486;2023-09-08T02:24:44;9.00;;;8.25;;
10403;SDS011;5248;47.374;8.486;2023-09-08T02:27:11;9.15;;;8.30;;
10403;SDS011;5248;47.374;8.486;2023-09-08T02:29:38;8.35;;;7.65;;
10403;SDS011;5248;47.374;8.486;2023-09-08T02:32:06;8.30;;;7.60;;
10403;SDS011;5248;47.374;8.486;2023-09-08T02:34:35;9.48;;;8.60;;
10403;SDS011;5248;47.374;8.486;2023-09-08T02:37:03;9.68;;;8.18;;
10403;SDS011;5248;47.374;8.486;2023-09-08T02:39:29;8.93;;;8.07;;
10403;SDS011;5248;47.374;8.486;2023-09-08T02:41:55;9.43;;;8.13;;
10403;SDS011;5248;47.374;8.486;2023-09-08T02:44:22;9.88;;;8.80;;
10403;SDS011;5248;47.374;8.486;2023-09-08T02:46:48;9.27;;;8.48;;
10403;SDS011;5248;47.374;8.486;2023-09-08T02:49:15;8.88;;;8.05;;
10403;SDS011;5248;47.374;8.486;2023-09-08T02:51:43;9.75;;;8.52;;
10403;SDS011;5248;47.374;8.486;2023-09-08T02:54:09;9.40;;;8.32;;
10403;SDS011;5248;47.374;8.486;2023-09-08T02:56:37;9.95;;;8.98;;
10403;SDS011;5248;47.374;8.486;2023-09-08T02:59:03;9.48;;;8.68;;
10403;SDS011;5248;47.374;8.486;2023-09-08T03:01:30;8.88;;;8.18;;
10403;SDS011;5248;47.374;8.486;2023-09-08T03:03:57;11.60;;;9.32;;
10403;SDS011;5248;47.374;8.486;2023-09-08T03:06:23;9.13;;;8.38;;
10403;SDS011;5248;47.374;8.486;2023-09-08T03:08:51;9.93;;;9.13;;
10403;SDS011;5248;47.374;8.486;2023-09-08T03:11:19;9.18;;;8.48;;
10403;SDS011;5248;47.374;8.486;2023-09-08T03:13:45;8.82;;;8.05;;
10403;SDS011;5248;47.374;8.486;2023-09-08T03:16:12;9.95;;;8.73;;
10403;SDS011;5248;47.374;8.486;2023-09-08T03:18:38;9.40;;;8.60;;
10403;SDS011;5248;47.374;8.486;2023-09-08T03:21:06;10.05;;;9.05;;
10403;SDS011;5248;47.374;8.486;2023-09-08T03:23:35;10.48;;;9.38;;
10403;SDS011;5248;47.374;8.486;2023-09-08T03:26:04;9.65;;;8.75;;
10403;SDS011;5248;47.374;8.486;2023-09-08T03:28:31;9.35;;;8.52;;
10403;SDS011;5248;47.374;8.486;2023-09-08T03:31:00;10.25;;;9.23;;
10403;SDS011;5248;47.374;8.486;2023-09-08T03:33:27;10.77;;;9.68;;
10403;SDS011;5248;47.374;8.486;2023-09-08T03:35:53;9.95;;;9.13;;
10403;SDS011;5248;47.374;8.486;2023-09-08T03:38:20;9.35;;;8.65;;
10403;SDS011;5248;47.374;8.486;2023-09-08T03:40:46;10.38;;;9.38;;
10403;SDS011;5248;47.374;8.486;2023-09-08T03:43:14;9.95;;;9.05;;
10403;SDS011;5248;47.374;8.486;2023-09-08T03:45:41;10.27;;;9.38;;
10403;SDS011;5248;47.374;8.486;2023-09-08T03:48:08;9.93;;;8.90;;
10403;SDS011;5248;47.374;8.486;2023-09-08T03:50:35;10.43;;;9.30;;
10403;SDS011;5248;47.374;8.486;2023-09-08T03:53:01;10.25;;;9.27;;
10403;SDS011;5248;47.374;8.486;2023-09-08T03:55:28;9.63;;;8.82;;
10403;SDS011;5248;47.374;8.486;2023-09-08T03:57:54;9.70;;;8.88;;
10403;SDS011;5248;47.374;8.486;2023-09-08T04:00:23;9.27;;;8.45;;
10403;SDS011;5248;47.374;8.486;2023-09-08T04:02:50;9.85;;;8.95;;
10403;SDS011;5248;47.374;8.486;2023-09-08T04:05:17;9.60;;;8.80;;
10403;SDS011;5248;47.374;8.486;2023-09-08T04:07:44;9.95;;;9.15;;
10403;SDS011;5248;47.374;8.486;2023-09-08T04:10:11;9.75;;;9.02;;
10403;SDS011;5248;47.374;8.486;2023-09-08T04:12:38;9.65;;;8.85;;
10403;SDS011;5248;47.374;8.486;2023-09-08T04:15:07;10.15;;;9.18;;
10403;SDS011;5248;47.374;8.486;2023-09-08T04:17:37;10.25;;;9.45;;
10403;SDS011;5248;47.374;8.486;2023-09-08T04:20:03;10.27;;;9.27;;
10403;SDS011;5248;47.374;8.486;2023-09-08T04:22:31;10.60;;;9.15;;
10403;SDS011;5248;47.374;8.486;2023-09-08T04:24:59;10.25;;;9.45;;
10403;SDS011;5248;47.374;8.486;2023-09-08T04:27:26;9.90;;;8.90;;
10403;SDS011;5248;47.374;8.486;2023-09-08T04:29:52;10.23;;;9.25;;
10403;SDS011;5248;47.374;8.486;2023-09-08T04:32:19;10.45;;;9.45;;
10403;SDS011;5248;47.374;8.486;2023-09-08T04:34:49;9.98;;;9.10;;
10403;SDS011;5248;47.374;8.486;2023-09-08T04:37:16;10.30;;;9.50;;
10403;SDS011;5248;47.374;8.486;2023-09-08T04:39:42;10.10;;;9.38;;
10403;SDS011;5248;47.374;8.486;2023-09-08T04:42:09;10.00;;;9.10;;
10403;SDS011;5248;47.374;8.486;2023-09-08T04:44:37;9.93;;;9.05;;
10403;SDS011;5248;47.374;8.486;2023-09-08T04:47:03;9.60;;;8.90;;
10403;SDS011;5248;47.374;8.486;2023-09-08T04:49:30;11.15;;;8.98;;
10403;SDS011;5248;47.374;8.486;2023-09-08T04:51:58;10.13;;;9.38;;
10403;SDS011;5248;47.374;8.486;2023-09-08T04:54:24;10.18;;;9.38;;
10403;SDS011;5248;47.374;8.486;2023-09-08T04:56:52;10.45;;;9.57;;
10403;SDS011;5248;47.374;8.486;2023-09-08T04:59:18;9.82;;;8.95;;
10403;SDS011;5248;47.374;8.486;2023-09-08T05:01:45;10.75;;;9.75;;
10403;SDS011;5248;47.374;8.486;2023-09-08T05:04:14;10.35;;;9.45;;
10403;SDS011;5248;47.374;8.486;2023-09-08T05:06:41;10.98;;;9.77;;
10403;SDS011;5248;47.374;8.486;2023-09-08T05:09:09;11.57;;;10.57;;
10403;SDS011;5248;47.374;8.486;2023-09-08T05:11:35;10.27;;;9.25;;
10403;SDS011;5248;47.374;8.486;2023-09-08T05:14:02;10.88;;;9.82;;
10403;SDS011;5248;47.374;8.486;2023-09-08T05:16:28;10.90;;;10.00;;
10403;SDS011;5248;47.374;8.486;2023-09-08T05:19:04;10.82;;;9.95;;
10403;SDS011;5248;47.374;8.486;2023-09-08T05:21:31;10.43;;;9.52;;
10403;SDS011;5248;47.374;8.486;2023-09-08T05:23:58;10.32;;;9.52;;
10403;SDS011;5248;47.374;8.486;2023-09-08T05:26:26;10.85;;;9.88;;
10403;SDS011;5248;47.374;8.486;2023-09-08T05:28:52;10.60;;;9.75;;
10403;SDS011;5248;47.374;8.486;2023-09-08T05:31:19;10.68;;;9.68;;
10403;SDS011;5248;47.374;8.486;2023-09-08T05:33:45;10.15;;;9.25;;
10403;SDS011;5248;47.374;8.486;2023-09-08T05:36:12;10.02;;;9.23;;
10403;SDS011;5248;47.374;8.486;2023-09-08T05:38:38;10.88;;;9.98;;
10403;SDS011;5248;47.374;8.486;2023-09-08T05:41:05;11.30;;;10.20;;
10403;SDS011;5248;47.374;8.486;2023-09-08T05:43:33;11.70;;;10.55;;
10403;SDS011;5248;47.374;8.486;2023-09-08T05:46:01;11.50;;;10.40;;
10403;SDS011;5248;47.374;8.486;2023-09-08T05:48:30;10.88;;;9.98;;
10403;SDS011;5248;47.374;8.486;2023-09-08T05:50:57;11.80;;;10.70;;
10403;SDS011;5248;47.374;8.486;2023-09-08T05:53:24;11.77;;;10.77;;
10403;SDS011;5248;47.374;8.486;2023-09-08T05:55:51;11.75;;;10.52;;
10403;SDS011;5248;47.374;8.486;2023-09-08T05:58:18;11.60;;;10.70;;
10403;SDS011;5248;47.374;8.486;2023-09-08T06:00:46;12.85;;;11.65;;
10403;SDS011;5248;47.374;8.486;2023-09-08T06:03:13;13.27;;;12.23;;
10403;SDS011;5248;47.374;8.486;2023-09-08T06:05:40;12.55;;;11.35;;
10403;SDS011;5248;47.374;8.486;2023-09-08T06:08:07;14.20;;;11.88;;
10403;SDS011;5248;47.374;8.486;2023-09-08T06:10:33;13.20;;;12.02;;
10403;SDS011;5248;47.374;8.486;2023-09-08T06:13:00;12.85;;;11.57;;
10403;SDS011;5248;47.374;8.486;2023-09-08T06:15:27;14.48;;;11.48;;
10403;SDS011;5248;47.374;8.486;2023-09-08T06:17:55;12.57;;;11.38;;
10403;SDS011;5248;47.374;8.486;2023-09-08T06:20:20;11.25;;;10.07;;
10403;SDS011;5248;47.374;8.486;2023-09-08T06:22:49;11.82;;;10.63;;
10403;SDS011;5248;47.374;8.486;2023-09-08T06:25:17;11.05;;;9.98;;
10403;SDS011;5248;47.374;8.486;2023-09-08T06:27:45;10.57;;;9.57;;
10403;SDS011;5248;47.374;8.486;2023-09-08T06:30:14;10.73;;;9.73;;
10403;SDS011;5248;47.374;8.486;2023-09-08T06:32:43;11.60;;;10.48;;
10403;SDS011;5248;47.374;8.486;2023-09-08T06:35:11;11.43;;;9.90;;
10403;SDS011;5248;47.374;8.486;2023-09-08T06:37:38;10.05;;;9.18;;
10403;SDS011;5248;47.374;8.486;2023-09-08T06:40:06;10.38;;;9.57;;
10403;SDS011;5248;47.374;8.486;2023-09-08T06:42:35;10.43;;;9.45;;
10403;SDS011;5248;47.374;8.486;2023-09-08T06:45:02;10.15;;;9.30;;
10403;SDS011;5248;47.374;8.486;2023-09-08T06:47:29;10.65;;;8.68;;
10403;SDS011;5248;47.374;8.486;2023-09-08T06:49:55;10.10;;;9.10;;
10403;SDS011;5248;47.374;8.486;2023-09-08T06:52:23;11.25;;;9.60;;
10403;SDS011;5248;47.374;8.486;2023-09-08T06:54:49;10.40;;;9.45;;
10403;SDS011;5248;47.374;8.486;2023-09-08T06:57:17;9.70;;;8.80;;
10403;SDS011;5248;47.374;8.486;2023-09-08T06:59:44;10.55;;;9.55;;
10403;SDS011;5248;47.374;8.486;2023-09-08T07:02:10;11.48;;;9.63;;
10403;SDS011;5248;47.374;8.486;2023-09-08T07:04:37;10.88;;;8.80;;
10403;SDS011;5248;47.374;8.486;2023-09-08T07:07:04;10.10;;;9.20;;
10403;SDS011;5248;47.374;8.486;2023-09-08T07:09:34;9.90;;;8.82;;
10403;SDS011;5248;47.374;8.486;2023-09-08T07:12:00;10.20;;;9.13;;
10403;SDS011;5248;47.374;8.486;2023-09-08T07:14:27;9.60;;;8.80;;
10403;SDS011;5248;47.374;8.486;2023-09-08T07:16:53;10.30;;;8.85;;
10403;SDS011;5248;47.374;8.486;2023-09-08T07:19:20;12.50;;;9.43;;
10403;SDS011;5248;47.374;8.486;2023-09-08T07:21:47;10.55;;;9.60;;
10403;SDS011;5248;47.374;8.486;2023-09-08T07:24:13;10.32;;;9.35;;
10403;SDS011;5248;47.374;8.486;2023-09-08T07:26:41;10.18;;;9.20;;
10403;SDS011;5248;47.374;8.486;2023-09-08T07:29:08;11.15;;;9.98;;
10403;SDS011;5248;47.374;8.486;2023-09-08T07:31:34;9.68;;;8.88;;
10403;SDS011;5248;47.374;8.486;2023-09-08T07:34:01;10.35;;;8.63;;
10403;SDS011;5248;47.374;8.486;2023-09-08T07:36:27;10.45;;;9.25;;
10403;SDS011;5248;47.374;8.486;2023-09-08T07:38:54;10.20;;;9.25;;
10403;SDS011;5248;47.374;8.486;2023-09-08T07:41:20;10.25;;;9.35;;
10403;SDS011;5248;47.374;8.486;2023-09-08T07:43:48;11.07;;;10.02;;
10403;SDS011;5248;47.374;8.486;2023-09-08T07:46:15;11.27;;;10.20;;
10403;SDS011;5248;47.374;8.486;2023-09-08T07:48:42;11.02;;;9.93;;
10403;SDS011;5248;47.374;8.486;2023-09-08T07:51:08;12.15;;;10.10;;
10403;SDS011;5248;47.374;8.486;2023-09-08T07:53:35;11.00;;;9.90;;
10403;SDS011;5248;47.374;8.486;2023-09-08T07:56:01;10.95;;;9.95;;
10403;SDS011;5248;47.374;8.486;2023-09-08T07:58:29;10.30;;;9.40;;
10403;SDS011;5248;47.374;8.486;2023-09-08T08:00:57;13.10;;;11.85;;
10403;SDS011;5248;47.374;8.486;2023-09-08T08:03:23;10.20;;;9.32;;
10403;SDS011;5248;47.374;8.486;2023-09-08T08:05:49;11.60;;;10.52;;
10403;SDS011;5248;47.374;8.486;2023-09-08T08:08:18;12.35;;;11.18;;
10403;SDS011;5248;47.374;8.486;2023-09-08T08:10:44;11.90;;;10.95;;
10403;SDS011;5248;47.374;8.486;2023-09-08T08:13:11;11.05;;;9.98;;
10403;SDS011;5248;47.374;8.486;2023-09-08T08:15:38;11.13;;;10.00;;
10403;SDS011;5248;47.374;8.486;2023-09-08T08:18:06;10.50;;;9.50;;
10403;SDS011;5248;47.374;8.486;2023-09-08T08:20:34;11.68;;;9.60;;
10403;SDS011;5248;47.374;8.486;2023-09-08T08:23:01;11.00;;;10.00;;
10403;SDS011;5248;47.374;8.486;2023-09-08T08:25:29;10.57;;;9.18;;
10403;SDS011;5248;47.374;8.486;2023-09-08T08:27:55;11.18;;;10.18;;
10403;SDS011;5248;47.374;8.486;2023-09-08T08:30:23;11.05;;;9.60;;
10403;SDS011;5248;47.374;8.486;2023-09-08T08:32:49;11.65;;;9.82;;
10403;SDS011;5248;47.374;8.486;2023-09-08T08:35:19;10.50;;;9.60;;
10403;SDS011;5248;47.374;8.486;2023-09-08T08:37:46;10.73;;;9.63;;
10403;SDS011;5248;47.374;8.486;2023-09-08T08:40:12;9.90;;;9.10;;
10403;SDS011;5248;47.374;8.486;2023-09-08T08:42:39;10.00;;;9.20;;
10403;SDS011;5248;47.374;8.486;2023-09-08T08:45:06;10.63;;;9.73;;
10403;SDS011;5248;47.374;8.486;2023-09-08T08:47:33;10.70;;;9.80;;
10403;SDS011;5248;47.374;8.486;2023-09-08T08:50:00;10.38;;;9.40;;
10403;SDS011;5248;47.374;8.486;2023-09-08T08:52:29;10.85;;;9.95;;
10403;SDS011;5248;47.374;8.486;2023-09-08T08:54:56;11.15;;;9.88;;
10403;SDS011;5248;47.374;8.486;2023-09-08T08:57:22;10.38;;;9.23;;
10403;SDS011;5248;47.374;8.486;2023-09-08T08:59:51;9.88;;;8.95;;
10403;SDS011;5248;47.374;8.486;2023-09-08T09:02:18;11.50;;;9.60;;
10403;SDS011;5248;47.374;8.486;2023-09-08T09:04:45;9.68;;;8.68;;
10403;SDS011;5248;47.374;8.486;2023-09-08T09:07:12;12.43;;;8.57;;
10403;SDS011;5248;47.374;8.486;2023-09-08T09:09:40;10.65;;;8.77;;
10403;SDS011;5248;47.374;8.486;2023-09-08T09:12:06;9.77;;;8.77;;
10403;SDS011;5248;47.374;8.486;2023-09-08T09:14:33;8.50;;;7.68;;
10403;SDS011;5248;47.374;8.486;2023-09-08T09:17:00;8.88;;;8.18;;
10403;SDS011;5248;47.374;8.486;2023-09-08T09:19:30;9.85;;;8.95;;
10403;SDS011;5248;47.374;8.486;2023-09-08T09:21:58;10.75;;;9.23;;
10403;SDS011;5248;47.374;8.486;2023-09-08T09:24:28;9.35;;;8.50;;
10403;SDS011;5248;47.374;8.486;2023-09-08T09:26:57;9.02;;;8.23;;
10403;SDS011;5248;47.374;8.486;2023-09-08T09:29:24;11.98;;;9.68;;
10403;SDS011;5248;47.374;8.486;2023-09-08T09:31:52;10.68;;;9.57;;
10403;SDS011;5248;47.374;8.486;2023-09-08T09:34:19;12.45;;;9.30;;
10403;SDS011;5248;47.374;8.486;2023-09-08T09:36:47;9.68;;;8.77;;
10403;SDS011;5248;47.374;8.486;2023-09-08T09:39:15;11.48;;;8.90;;
10403;SDS011;5248;47.374;8.486;2023-09-08T09:41:42;9.70;;;8.23;;
10403;SDS011;5248;47.374;8.486;2023-09-08T09:44:11;9.07;;;8.18;;
10403;SDS011;5248;47.374;8.486;2023-09-08T09:46:37;10.15;;;8.13;;
10403;SDS011;5248;47.374;8.486;2023-09-08T09:49:04;11.30;;;8.65;;
10403;SDS011;5248;47.374;8.486;2023-09-08T09:51:30;9.82;;;8.82;;
10403;SDS011;5248;47.374;8.486;2023-09-08T09:53:57;10.40;;;8.77;;
10403;SDS011;5248;47.374;8.486;2023-09-08T09:56:24;10.27;;;8.57;;
10403;SDS011;5248;47.374;8.486;2023-09-08T09:58:51;9.75;;;8.95;;
10403;SDS011;5248;47.374;8.486;2023-09-08T10:01:20;10.25;;;9.27;;
10403;SDS011;5248;47.374;8.486;2023-09-08T10:03:52;9.45;;;8.38;;
10403;SDS011;5248;47.374;8.486;2023-09-08T10:06:20;11.75;;;8.60;;
10403;SDS011;5248;47.374;8.486;2023-09-08T10:08:47;8.35;;;7.75;;
10403;SDS011;5248;47.374;8.486;2023-09-08T10:11:14;8.98;;;8.18;;
10403;SDS011;5248;47.374;8.486;2023-09-08T10:13:42;9.85;;;8.85;;
10403;SDS011;5248;47.374;8.486;2023-09-08T10:16:12;9.00;;;8.25;;
10403;SDS011;5248;47.374;8.486;2023-09-08T10:18:41;8.93;;;8.13;;
10403;SDS011;5248;47.374;8.486;2023-09-08T10:21:09;9.43;;;8.63;;
10403;SDS011;5248;47.374;8.486;2023-09-08T10:23:36;9.50;;;8.57;;
10403;SDS011;5248;47.374;8.486;2023-09-08T10:26:05;8.57;;;7.82;;
10403;SDS011;5248;47.374;8.486;2023-09-08T10:28:38;8.73;;;7.97;;
10403;SDS011;5248;47.374;8.486;2023-09-08T10:31:05;8.82;;;7.78;;
10403;SDS011;5248;47.374;8.486;2023-09-08T10:33:32;8.70;;;8.00;;
10403;SDS011;5248;47.374;8.486;2023-09-08T10:36:00;8.23;;;7.63;;
10403;SDS011;5248;47.374;8.486;2023-09-08T10:38:31;9.43;;;8.00;;
10403;SDS011;5248;47.374;8.486;2023-09-08T10:43:54;8.57;;;7.85;;
10403;SDS011;5248;47.374;8.486;2023-09-08T10:46:21;10.45;;;8.18;;
10403;SDS011;5248;47.374;8.486;2023-09-08T10:48:48;9.20;;;8.30;;
10403;SDS011;5248;47.374;8.486;2023-09-08T10:51:16;11.25;;;8.00;;
10403;SDS011;5248;47.374;8.486;2023-09-08T10:53:46;8.30;;;7.60;;
10403;SDS011;5248;47.374;8.486;2023-09-08T10:56:13;7.90;;;7.28;;
10403;SDS011;5248;47.374;8.486;2023-09-08T10:58:40;8.90;;;8.07;;
10403;SDS011;5248;47.374;8.486;2023-09-08T11:01:11;8.55;;;7.65;;
10403;SDS011;5248;47.374;8.486;2023-09-08T11:03:42;8.50;;;7.70;;
10403;SDS011;5248;47.374;8.486;2023-09-08T11:06:10;8.05;;;7.40;;
10403;SDS011;5248;47.374;8.486;2023-09-08T11:08:40;8.07;;;7.38;;
10403;SDS011;5248;47.374;8.486;2023-09-08T11:11:07;9.85;;;8.23;;
10403;SDS011;5248;47.374;8.486;2023-09-08T11:13:35;8.07;;;7.35;;
10403;SDS011;5248;47.374;8.486;2023-09-08T11:16:02;8.55;;;7.65;;
10403;SDS011;5248;47.374;8.486;2023-09-08T11:18:30;7.72;;;7.13;;
10403;SDS011;5248;47.374;8.486;2023-09-08T11:20:58;8.40;;;7.50;;
10403;SDS011;5248;47.374;8.486;2023-09-08T11:23:27;7.13;;;6.63;;
10403;SDS011;5248;47.374;8.486;2023-09-08T11:25:55;7.32;;;6.60;;
10403;SDS011;5248;47.374;8.486;2023-09-08T11:28:21;7.90;;;7.13;;
10403;SDS011;5248;47.374;8.486;2023-09-08T11:30:49;7.35;;;6.82;;
10403;SDS011;5248;47.374;8.486;2023-09-08T11:33:16;7.85;;;7.25;;
10403;SDS011;5248;47.374;8.486;2023-09-08T11:35:45;10.13;;;7.25;;
10403;SDS011;5248;47.374;8.486;2023-09-08T11:38:12;7.38;;;6.78;;
10403;SDS011;5248;47.374;8.486;2023-09-08T11:40:39;7.00;;;6.40;;
10403;SDS011;5248;47.374;8.486;2023-09-08T11:43:07;7.15;;;6.28;;
10403;SDS011;5248;47.374;8.486;2023-09-08T11:45:34;6.68;;;6.13;;
10403;SDS011;5248;47.374;8.486;2023-09-08T11:48:01;6.78;;;6.18;;
10403;SDS011;5248;47.374;8.486;2023-09-08T11:50:28;6.45;;;5.88;;
10403;SDS011;5248;47.374;8.486;2023-09-08T11:52:55;7.05;;;6.55;;
10403;SDS011;5248;47.374;8.486;2023-09-08T11:55:22;7.20;;;6.65;;
10403;SDS011;5248;47.374;8.486;2023-09-08T11:57:50;6.88;;;6.38;;
10403;SDS011;5248;47.374;8.486;2023-09-08T12:00:21;7.65;;;6.10;;
10403;SDS011;5248;47.374;8.486;2023-09-08T12:02:48;8.23;;;6.20;;
10403;SDS011;5248;47.374;8.486;2023-09-08T12:05:20;7.53;;;6.32;;
10403;SDS011;5248;47.374;8.486;2023-09-08T12:07:47;6.45;;;5.95;;
10403;SDS011;5248;47.374;8.486;2023-09-08T12:10:14;6.25;;;5.68;;
10403;SDS011;5248;47.374;8.486;2023-09-08T12:12:44;7.78;;;5.35;;
10403;SDS011;5248;47.374;8.486;2023-09-08T12:15:11;7.07;;;5.60;;
10403;SDS011;5248;47.374;8.486;2023-09-08T12:17:47;6.20;;;5.18;;
10403;SDS011;5248;47.374;8.486;2023-09-08T12:20:15;5.63;;;5.22;;
10403;SDS011;5248;47.374;8.486;2023-09-08T12:22:49;6.13;;;5.57;;
10403;SDS011;5248;47.374;8.486;2023-09-08T12:25:16;5.78;;;5.20;;
10403;SDS011;5248;47.374;8.486;2023-09-08T12:27:43;5.35;;;4.93;;
10403;SDS011;5248;47.374;8.486;2023-09-08T12:30:16;5.93;;;5.43;;
10403;SDS011;5248;47.374;8.486;2023-09-08T12:32:44;5.88;;;5.38;;
10403;SDS011;5248;47.374;8.486;2023-09-08T12:35:13;5.55;;;5.10;;
10403;SDS011;5248;47.374;8.486;2023-09-08T12:37:39;6.95;;;5.70;;
10403;SDS011;5248;47.374;8.486;2023-09-08T12:40:07;6.30;;;5.70;;
10403;SDS011;5248;47.374;8.486;2023-09-08T12:42:34;5.78;;;5.38;;
10403;SDS011;5248;47.374;8.486;2023-09-08T12:45:01;5.70;;;5.30;;
10403;SDS011;5248;47.374;8.486;2023-09-08T12:47:27;6.60;;;5.60;;
10403;SDS011;5248;47.374;8.486;2023-09-08T12:49:54;6.20;;;5.72;;
10403;SDS011;5248;47.374;8.486;2023-09-08T12:52:22;6.20;;;5.70;;
10403;SDS011;5248;47.374;8.486;2023-09-08T12:54:49;6.25;;;5.85;;
10403;SDS011;5248;47.374;8.486;2023-09-08T12:57:15;6.22;;;5.63;;
10403;SDS011;5248;47.374;8.486;2023-09-08T12:59:41;5.90;;;5.30;;
10403;SDS011;5248;47.374;8.486;2023-09-08T13:02:08;6.43;;;5.88;;
10403;SDS011;5248;47.374;8.486;2023-09-08T13:04:37;8.07;;;5.40;;
10403;SDS011;5248;47.374;8.486;2023-09-08T13:07:07;6.93;;;5.95;;
10403;SDS011;5248;47.374;8.486;2023-09-08T13:09:35;8.20;;;5.85;;
10403;SDS011;5248;47.374;8.486;2023-09-08T13:12:01;6.25;;;5.65;;
10403;SDS011;5248;47.374;8.486;2023-09-08T13:14:28;5.82;;;5.40;;
10403;SDS011;5248;47.374;8.486;2023-09-08T13:16:55;6.20;;;5.70;;
10403;SDS011;5248;47.374;8.486;2023-09-08T13:19:21;6.45;;;5.25;;
10403;SDS011;5248;47.374;8.486;2023-09-08T13:21:48;5.22;;;4.82;;
10403;SDS011;5248;47.374;8.486;2023-09-08T13:24:14;6.80;;;5.25;;
10403;SDS011;5248;47.374;8.486;2023-09-08T13:26:46;5.40;;;4.90;;
10403;SDS011;5248;47.374;8.486;2023-09-08T13:29:12;6.28;;;5.68;;
10403;SDS011;5248;47.374;8.486;2023-09-08T13:31:39;5.90;;;4.80;;
10403;SDS011;5248;47.374;8.486;2023-09-08T13:34:06;5.00;;;4.60;;
10403;SDS011;5248;47.374;8.486;2023-09-08T13:36:32;5.50;;;5.13;;
10403;SDS011;5248;47.374;8.486;2023-09-08T13:38:59;5.53;;;5.03;;
10403;SDS011;5248;47.374;8.486;2023-09-08T13:41:42;5.78;;;5.22;;
10403;SDS011;5248;47.374;8.486;2023-09-08T13:44:12;6.30;;;5.05;;
10403;SDS011;5248;47.374;8.486;2023-09-08T13:46:38;7.28;;;5.75;;
10403;SDS011;5248;47.374;8.486;2023-09-08T13:49:05;5.55;;;5.03;;
10403;SDS011;5248;47.374;8.486;2023-09-08T13:51:32;7.82;;;5.82;;
10403;SDS011;5248;47.374;8.486;2023-09-08T13:53:59;6.28;;;5.60;;
10403;SDS011;5248;47.374;8.486;2023-09-08T13:56:25;5.15;;;4.75;;
10403;SDS011;5248;47.374;8.486;2023-09-08T13:58:53;5.88;;;5.32;;
10403;SDS011;5248;47.374;8.486;2023-09-08T14:01:20;5.50;;;5.10;;
10403;SDS011;5248;47.374;8.486;2023-09-08T14:03:47;5.45;;;4.95;;
10403;SDS011;5248;47.374;8.486;2023-09-08T14:06:16;5.78;;;5.05;;
10403;SDS011;5248;47.374;8.486;2023-09-08T14:08:43;5.05;;;4.60;;
10403;SDS011;5248;47.374;8.486;2023-09-08T14:11:10;4.95;;;4.63;;
10403;SDS011;5248;47.374;8.486;2023-09-08T14:13:37;6.43;;;5.10;;
10403;SDS011;5248;47.374;8.486;2023-09-08T14:16:05;5.63;;;5.13;;
10403;SDS011;5248;47.374;8.486;2023-09-08T14:18:31;6.22;;;4.57;;
10403;SDS011;5248;47.374;8.486;2023-09-08T14:20:58;6.38;;;5.03;;
10403;SDS011;5248;47.374;8.486;2023-09-08T14:23:24;6.38;;;5.00;;
10403;SDS011;5248;47.374;8.486;2023-09-08T14:25:51;5.25;;;4.75;;
10403;SDS011;5248;47.374;8.486;2023-09-08T14:28:17;5.47;;;5.07;;
10403;SDS011;5248;47.374;8.486;2023-09-08T14:30:44;5.93;;;4.75;;
10403;SDS011;5248;47.374;8.486;2023-09-08T14:33:12;5.13;;;4.72;;
10403;SDS011;5248;47.374;8.486;2023-09-08T14:35:41;9.57;;;8.73;;
10403;SDS011;5248;47.374;8.486;2023-09-08T14:38:08;10.02;;;9.23;;
10403;SDS011;5248;47.374;8.486;2023-09-08T14:40:34;7.70;;;7.15;;
10403;SDS011;5248;47.374;8.486;2023-09-08T14:43:01;6.00;;;5.45;;
10403;SDS011;5248;47.374;8.486;2023-09-08T14:45:29;5.45;;;4.82;;
10403;SDS011;5248;47.374;8.486;2023-09-08T14:47:56;5.25;;;4.88;;
10403;SDS011;5248;47.374;8.486;2023-09-08T14:50:24;5.10;;;4.60;;
10403;SDS011;5248;47.374;8.486;2023-09-08T14:52:50;5.00;;;4.60;;
10403;SDS011;5248;47.374;8.486;2023-09-08T14:55:17;4.93;;;4.53;;
10403;SDS011;5248;47.374;8.486;2023-09-08T14:57:44;5.00;;;4.65;;
10403;SDS011;5248;47.374;8.486;2023-09-08T15:00:11;5.22;;;4.82;;